sensor_id;sensor_type;location;lat;lon;timestamp;P1;durP1;ratioP1;P2;durP2;ratioP2
72601;SDS011;60644;55.858;37.390;2022-11-25T00:01:44;7.90;;;2.33;;
72601;SDS011;60644;55.858;37.390;2022-11-25T00:04:09;6.35;;;1.52;;
72601;SDS011;60644;55.858;37.390;2022-11-25T00:06:35;4.10;;;0.90;;
72601;SDS011;60644;55.858;37.390;2022-11-25T00:09:05;6.93;;;1.95;;
72601;SDS011;60644;55.858;37.390;2022-11-25T00:11:34;5.63;;;1.30;;
72601;SDS011;60644;55.858;37.390;2022-11-25T00:14:00;4.97;;;1.30;;
72601;SDS011;60644;55.858;37.390;2022-11-25T00:16:26;6.55;;;1.63;;
72601;SDS011;60644;55.858;37.390;2022-11-25T00:18:53;10.70;;;1.55;;
72601;SDS011;60644;55.858;37.390;2022-11-25T00:21:20;4.13;;;1.20;;
72601;SDS011;60644;55.858;37.390;2022-11-25T00:26:28;5.75;;;1.42;;
72601;SDS011;60644;55.858;37.390;2022-11-25T00:28:57;5.95;;;1.08;;
72601;SDS011;60644;55.858;37.390;2022-11-25T00:31:25;6.00;;;1.38;;
72601;SDS011;60644;55.858;37.390;2022-11-25T00:33:53;8.00;;;2.03;;
72601;SDS011;60644;55.858;37.390;2022-11-25T00:36:21;5.03;;;1.40;;
72601;SDS011;60644;55.858;37.390;2022-11-25T00:38:59;3.05;;;0.98;;
72601;SDS011;60644;55.858;37.390;2022-11-25T00:41:27;5.70;;;1.70;;
72601;SDS011;60644;55.858;37.390;2022-11-25T00:44:13;7.13;;;1.40;;
72601;SDS011;60644;55.858;37.390;2022-11-25T00:47:10;5.47;;;1.20;;
72601;SDS011;60644;55.858;37.390;2022-11-25T00:49:37;5.28;;;1.20;;
72601;SDS011;60644;55.858;37.390;2022-11-25T00:52:04;6.60;;;1.52;;
72601;SDS011;60644;55.858;37.390;2022-11-25T00:54:30;6.25;;;2.22;;
72601;SDS011;60644;55.858;37.390;2022-11-25T00:56:57;5.35;;;2.05;;
72601;SDS011;60644;55.858;37.390;2022-11-25T00:59:23;7.67;;;1.50;;
72601;SDS011;60644;55.858;37.390;2022-11-25T01:01:49;5.45;;;0.95;;
72601;SDS011;60644;55.858;37.390;2022-11-25T01:04:16;6.35;;;1.70;;
72601;SDS011;60644;55.858;37.390;2022-11-25T01:06:42;6.18;;;1.92;;
72601;SDS011;60644;55.858;37.390;2022-11-25T01:09:09;4.78;;;0.98;;
72601;SDS011;60644;55.858;37.390;2022-11-25T01:11:37;6.07;;;1.53;;
72601;SDS011;60644;55.858;37.390;2022-11-25T01:14:04;5.22;;;1.42;;
72601;SDS011;60644;55.858;37.390;2022-11-25T01:16:30;9.35;;;2.28;;
72601;SDS011;60644;55.858;37.390;2022-11-25T01:18:57;7.85;;;1.67;;
72601;SDS011;60644;55.858;37.390;2022-11-25T01:21:25;7.55;;;2.08;;
72601;SDS011;60644;55.858;37.390;2022-11-25T01:23:53;6.17;;;1.57;;
72601;SDS011;60644;55.858;37.390;2022-11-25T01:26:19;7.38;;;2.42;;
72601;SDS011;60644;55.858;37.390;2022-11-25T01:28:47;8.07;;;2.60;;
72601;SDS011;60644;55.858;37.390;2022-11-25T01:31:18;6.25;;;1.40;;
72601;SDS011;60644;55.858;37.390;2022-11-25T01:33:45;5.43;;;1.90;;
72601;SDS011;60644;55.858;37.390;2022-11-25T01:36:15;8.13;;;2.20;;
72601;SDS011;60644;55.858;37.390;2022-11-25T01:38:42;6.57;;;2.45;;
72601;SDS011;60644;55.858;37.390;2022-11-25T01:41:10;6.63;;;2.58;;
72601;SDS011;60644;55.858;37.390;2022-11-25T01:43:37;7.47;;;1.95;;
72601;SDS011;60644;55.858;37.390;2022-11-25T01:48:42;5.82;;;1.55;;
72601;SDS011;60644;55.858;37.390;2022-11-25T01:51:27;7.32;;;2.10;;
72601;SDS011;60644;55.858;37.390;2022-11-25T01:54:12;6.65;;;2.13;;
72601;SDS011;60644;55.858;37.390;2022-11-25T01:56:43;9.60;;;1.95;;
72601;SDS011;60644;55.858;37.390;2022-11-25T01:59:13;5.40;;;1.60;;
72601;SDS011;60644;55.858;37.390;2022-11-25T02:01:40;7.43;;;1.90;;
72601;SDS011;60644;55.858;37.390;2022-11-25T02:04:06;6.97;;;2.25;;
72601;SDS011;60644;55.858;37.390;2022-11-25T02:06:38;8.23;;;2.58;;
72601;SDS011;60644;55.858;37.390;2022-11-25T02:09:09;8.40;;;2.20;;
72601;SDS011;60644;55.858;37.390;2022-11-25T02:11:37;8.65;;;2.72;;
72601;SDS011;60644;55.858;37.390;2022-11-25T02:14:04;6.45;;;1.70;;
72601;SDS011;60644;55.858;37.390;2022-11-25T02:16:32;7.85;;;2.28;;
72601;SDS011;60644;55.858;37.390;2022-11-25T02:18:58;9.57;;;2.40;;
72601;SDS011;60644;55.858;37.390;2022-11-25T02:21:25;9.93;;;3.45;;
72601;SDS011;60644;55.858;37.390;2022-11-25T02:24:01;11.02;;;3.00;;
72601;SDS011;60644;55.858;37.390;2022-11-25T02:26:34;8.15;;;2.92;;
72601;SDS011;60644;55.858;37.390;2022-11-25T02:29:00;9.07;;;2.30;;
72601;SDS011;60644;55.858;37.390;2022-11-25T02:31:26;12.13;;;2.72;;
72601;SDS011;60644;55.858;37.390;2022-11-25T02:33:51;7.77;;;2.43;;
72601;SDS011;60644;55.858;37.390;2022-11-25T02:36:18;8.55;;;2.50;;
72601;SDS011;60644;55.858;37.390;2022-11-25T02:38:56;8.25;;;2.35;;
72601;SDS011;60644;55.858;37.390;2022-11-25T02:41:29;8.35;;;2.30;;
72601;SDS011;60644;55.858;37.390;2022-11-25T02:44:01;7.63;;;2.33;;
72601;SDS011;60644;55.858;37.390;2022-11-25T02:46:28;8.13;;;2.83;;
72601;SDS011;60644;55.858;37.390;2022-11-25T02:48:55;9.55;;;3.05;;
72601;SDS011;60644;55.858;37.390;2022-11-25T02:51:24;8.68;;;2.60;;
72601;SDS011;60644;55.858;37.390;2022-11-25T02:53:52;7.97;;;2.45;;
72601;SDS011;60644;55.858;37.390;2022-11-25T02:56:20;9.30;;;3.13;;
72601;SDS011;60644;55.858;37.390;2022-11-25T02:58:48;10.68;;;3.80;;
72601;SDS011;60644;55.858;37.390;2022-11-25T03:01:14;8.18;;;2.60;;
72601;SDS011;60644;55.858;37.390;2022-11-25T03:03:40;9.23;;;2.50;;
72601;SDS011;60644;55.858;37.390;2022-11-25T03:06:06;8.57;;;2.23;;
72601;SDS011;60644;55.858;37.390;2022-11-25T03:08:33;9.13;;;3.33;;
72601;SDS011;60644;55.858;37.390;2022-11-25T03:11:04;11.27;;;3.28;;
72601;SDS011;60644;55.858;37.390;2022-11-25T03:13:31;10.32;;;2.90;;
72601;SDS011;60644;55.858;37.390;2022-11-25T03:15:58;12.18;;;4.03;;
72601;SDS011;60644;55.858;37.390;2022-11-25T03:18:24;8.97;;;2.90;;
72601;SDS011;60644;55.858;37.390;2022-11-25T03:20:51;10.75;;;3.42;;
72601;SDS011;60644;55.858;37.390;2022-11-25T03:23:17;11.32;;;4.13;;
72601;SDS011;60644;55.858;37.390;2022-11-25T03:25:43;12.43;;;4.38;;
72601;SDS011;60644;55.858;37.390;2022-11-25T03:28:09;10.37;;;3.30;;
72601;SDS011;60644;55.858;37.390;2022-11-25T03:30:35;10.45;;;4.65;;
72601;SDS011;60644;55.858;37.390;2022-11-25T03:33:02;9.40;;;3.10;;
72601;SDS011;60644;55.858;37.390;2022-11-25T03:35:28;6.55;;;2.83;;
72601;SDS011;60644;55.858;37.390;2022-11-25T03:37:54;9.55;;;3.40;;
72601;SDS011;60644;55.858;37.390;2022-11-25T03:40:20;11.88;;;4.68;;
72601;SDS011;60644;55.858;37.390;2022-11-25T03:42:46;11.93;;;4.20;;
72601;SDS011;60644;55.858;37.390;2022-11-25T03:45:14;12.00;;;3.80;;
72601;SDS011;60644;55.858;37.390;2022-11-25T03:47:42;11.40;;;3.67;;
72601;SDS011;60644;55.858;37.390;2022-11-25T03:50:10;12.60;;;4.90;;
72601;SDS011;60644;55.858;37.390;2022-11-25T03:52:38;11.23;;;4.03;;
72601;SDS011;60644;55.858;37.390;2022-11-25T03:55:05;9.27;;;3.22;;
72601;SDS011;60644;55.858;37.390;2022-11-25T03:57:34;11.98;;;4.22;;
72601;SDS011;60644;55.858;37.390;2022-11-25T04:00:00;9.45;;;3.55;;
72601;SDS011;60644;55.858;37.390;2022-11-25T04:02:32;13.05;;;5.15;;
72601;SDS011;60644;55.858;37.390;2022-11-25T04:04:57;14.57;;;5.17;;
72601;SDS011;60644;55.858;37.390;2022-11-25T04:07:23;14.68;;;5.03;;
72601;SDS011;60644;55.858;37.390;2022-11-25T04:09:49;12.60;;;4.97;;
72601;SDS011;60644;55.858;37.390;2022-11-25T04:12:19;12.98;;;4.45;;
72601;SDS011;60644;55.858;37.390;2022-11-25T04:15:07;17.08;;;5.22;;
72601;SDS011;60644;55.858;37.390;2022-11-25T04:17:34;13.65;;;4.80;;
72601;SDS011;60644;55.858;37.390;2022-11-25T04:20:00;12.55;;;4.22;;
72601;SDS011;60644;55.858;37.390;2022-11-25T04:22:29;10.50;;;4.43;;
72601;SDS011;60644;55.858;37.390;2022-11-25T04:24:55;14.63;;;5.75;;
72601;SDS011;60644;55.858;37.390;2022-11-25T04:27:24;14.23;;;4.75;;
72601;SDS011;60644;55.858;37.390;2022-11-25T04:29:51;8.95;;;3.22;;
72601;SDS011;60644;55.858;37.390;2022-11-25T04:32:19;12.60;;;5.10;;
72601;SDS011;60644;55.858;37.390;2022-11-25T04:34:45;10.03;;;4.10;;
72601;SDS011;60644;55.858;37.390;2022-11-25T04:37:11;10.52;;;4.18;;
72601;SDS011;60644;55.858;37.390;2022-11-25T04:39:39;12.13;;;4.32;;
72601;SDS011;60644;55.858;37.390;2022-11-25T04:42:12;9.85;;;3.85;;
72601;SDS011;60644;55.858;37.390;2022-11-25T04:44:57;11.60;;;4.27;;
72601;SDS011;60644;55.858;37.390;2022-11-25T04:47:24;12.35;;;4.47;;
72601;SDS011;60644;55.858;37.390;2022-11-25T04:49:50;13.70;;;4.35;;
72601;SDS011;60644;55.858;37.390;2022-11-25T04:52:17;11.23;;;3.67;;
72601;SDS011;60644;55.858;37.390;2022-11-25T04:54:43;14.03;;;5.23;;
72601;SDS011;60644;55.858;37.390;2022-11-25T04:57:12;13.80;;;4.85;;
72601;SDS011;60644;55.858;37.390;2022-11-25T04:59:41;8.43;;;2.83;;
72601;SDS011;60644;55.858;37.390;2022-11-25T05:02:14;13.00;;;5.13;;
72601;SDS011;60644;55.858;37.390;2022-11-25T05:04:51;18.42;;;4.05;;
72601;SDS011;60644;55.858;37.390;2022-11-25T05:07:20;11.02;;;4.18;;
72601;SDS011;60644;55.858;37.390;2022-11-25T05:09:49;10.02;;;3.50;;
72601;SDS011;60644;55.858;37.390;2022-11-25T05:12:22;12.93;;;4.13;;
72601;SDS011;60644;55.858;37.390;2022-11-25T05:14:49;14.47;;;4.47;;
72601;SDS011;60644;55.858;37.390;2022-11-25T05:17:17;12.65;;;3.90;;
72601;SDS011;60644;55.858;37.390;2022-11-25T05:19:45;12.32;;;4.10;;
72601;SDS011;60644;55.858;37.390;2022-11-25T05:22:13;11.63;;;4.18;;
72601;SDS011;60644;55.858;37.390;2022-11-25T05:24:42;13.07;;;3.50;;
72601;SDS011;60644;55.858;37.390;2022-11-25T05:27:08;10.33;;;3.37;;
72601;SDS011;60644;55.858;37.390;2022-11-25T05:29:34;9.52;;;3.15;;
72601;SDS011;60644;55.858;37.390;2022-11-25T05:32:01;12.70;;;4.03;;
72601;SDS011;60644;55.858;37.390;2022-11-25T05:34:27;9.90;;;3.90;;
72601;SDS011;60644;55.858;37.390;2022-11-25T05:36:53;12.13;;;3.40;;
72601;SDS011;60644;55.858;37.390;2022-11-25T05:39:19;12.20;;;4.38;;
72601;SDS011;60644;55.858;37.390;2022-11-25T05:42:06;12.07;;;4.20;;
72601;SDS011;60644;55.858;37.390;2022-11-25T05:44:32;9.52;;;3.50;;
72601;SDS011;60644;55.858;37.390;2022-11-25T05:46:58;10.57;;;2.67;;
72601;SDS011;60644;55.858;37.390;2022-11-25T05:49:24;10.67;;;3.67;;
72601;SDS011;60644;55.858;37.390;2022-11-25T05:51:50;8.93;;;2.53;;
72601;SDS011;60644;55.858;37.390;2022-11-25T05:54:18;8.45;;;2.80;;
72601;SDS011;60644;55.858;37.390;2022-11-25T05:56:44;8.40;;;3.20;;
72601;SDS011;60644;55.858;37.390;2022-11-25T05:59:29;9.93;;;3.10;;
72601;SDS011;60644;55.858;37.390;2022-11-25T06:02:10;10.75;;;3.15;;
72601;SDS011;60644;55.858;37.390;2022-11-25T06:04:36;11.43;;;2.80;;
72601;SDS011;60644;55.858;37.390;2022-11-25T06:07:02;10.35;;;3.42;;
72601;SDS011;60644;55.858;37.390;2022-11-25T06:09:28;11.90;;;3.73;;
72601;SDS011;60644;55.858;37.390;2022-11-25T06:11:55;10.25;;;2.88;;
72601;SDS011;60644;55.858;37.390;2022-11-25T06:14:21;12.30;;;3.55;;
72601;SDS011;60644;55.858;37.390;2022-11-25T06:16:48;11.23;;;3.47;;
72601;SDS011;60644;55.858;37.390;2022-11-25T06:19:21;10.60;;;4.00;;
72601;SDS011;60644;55.858;37.390;2022-11-25T06:21:47;13.63;;;3.57;;
72601;SDS011;60644;55.858;37.390;2022-11-25T06:24:14;9.40;;;3.05;;
72601;SDS011;60644;55.858;37.390;2022-11-25T06:26:42;11.90;;;3.40;;
72601;SDS011;60644;55.858;37.390;2022-11-25T06:29:09;7.50;;;2.65;;
72601;SDS011;60644;55.858;37.390;2022-11-25T06:31:35;12.23;;;4.30;;
72601;SDS011;60644;55.858;37.390;2022-11-25T06:34:21;11.43;;;3.33;;
72601;SDS011;60644;55.858;37.390;2022-11-25T06:36:49;11.65;;;3.17;;
72601;SDS011;60644;55.858;37.390;2022-11-25T06:39:14;11.90;;;3.42;;
72601;SDS011;60644;55.858;37.390;2022-11-25T06:41:40;8.07;;;2.17;;
72601;SDS011;60644;55.858;37.390;2022-11-25T06:44:06;9.07;;;2.72;;
72601;SDS011;60644;55.858;37.390;2022-11-25T06:46:32;6.47;;;2.70;;
72601;SDS011;60644;55.858;37.390;2022-11-25T06:48:58;12.43;;;3.90;;
72601;SDS011;60644;55.858;37.390;2022-11-25T06:51:24;8.75;;;2.80;;
72601;SDS011;60644;55.858;37.390;2022-11-25T06:53:50;10.27;;;3.05;;
72601;SDS011;60644;55.858;37.390;2022-11-25T06:56:18;10.03;;;3.13;;
72601;SDS011;60644;55.858;37.390;2022-11-25T06:58:48;10.55;;;2.95;;
72601;SDS011;60644;55.858;37.390;2022-11-25T07:01:16;10.27;;;2.90;;
72601;SDS011;60644;55.858;37.390;2022-11-25T07:03:45;8.50;;;2.92;;
72601;SDS011;60644;55.858;37.390;2022-11-25T07:06:12;8.95;;;2.00;;
72601;SDS011;60644;55.858;37.390;2022-11-25T07:08:39;8.43;;;3.10;;
72601;SDS011;60644;55.858;37.390;2022-11-25T07:11:07;9.00;;;2.30;;
72601;SDS011;60644;55.858;37.390;2022-11-25T07:13:36;8.90;;;2.67;;
72601;SDS011;60644;55.858;37.390;2022-11-25T07:16:03;11.52;;;2.95;;
72601;SDS011;60644;55.858;37.390;2022-11-25T07:18:31;9.87;;;2.67;;
72601;SDS011;60644;55.858;37.390;2022-11-25T07:21:04;12.75;;;3.80;;
72601;SDS011;60644;55.858;37.390;2022-11-25T07:23:35;11.52;;;3.30;;
72601;SDS011;60644;55.858;37.390;2022-11-25T07:26:06;10.25;;;3.25;;
72601;SDS011;60644;55.858;37.390;2022-11-25T07:28:34;7.13;;;2.05;;
72601;SDS011;60644;55.858;37.390;2022-11-25T07:33:53;9.65;;;3.13;;
72601;SDS011;60644;55.858;37.390;2022-11-25T07:36:23;13.98;;;3.88;;
72601;SDS011;60644;55.858;37.390;2022-11-25T07:38:50;10.82;;;3.17;;
72601;SDS011;60644;55.858;37.390;2022-11-25T07:41:17;9.85;;;3.05;;
72601;SDS011;60644;55.858;37.390;2022-11-25T07:43:52;11.07;;;3.27;;
72601;SDS011;60644;55.858;37.390;2022-11-25T07:48:57;9.15;;;2.90;;
72601;SDS011;60644;55.858;37.390;2022-11-25T07:51:26;6.47;;;2.45;;
72601;SDS011;60644;55.858;37.390;2022-11-25T07:53:57;8.68;;;2.63;;
72601;SDS011;60644;55.858;37.390;2022-11-25T07:56:25;8.20;;;3.07;;
72601;SDS011;60644;55.858;37.390;2022-11-25T07:58:52;11.82;;;3.00;;
72601;SDS011;60644;55.858;37.390;2022-11-25T08:01:19;10.90;;;2.70;;
72601;SDS011;60644;55.858;37.390;2022-11-25T08:03:47;10.85;;;2.40;;
72601;SDS011;60644;55.858;37.390;2022-11-25T08:06:18;10.05;;;2.55;;
72601;SDS011;60644;55.858;37.390;2022-11-25T08:08:46;7.10;;;1.57;;
72601;SDS011;60644;55.858;37.390;2022-11-25T08:11:13;12.88;;;3.28;;
72601;SDS011;60644;55.858;37.390;2022-11-25T08:13:45;9.73;;;3.10;;
72601;SDS011;60644;55.858;37.390;2022-11-25T08:16:12;11.77;;;3.08;;
72601;SDS011;60644;55.858;37.390;2022-11-25T08:18:39;7.50;;;1.85;;
72601;SDS011;60644;55.858;37.390;2022-11-25T08:21:06;11.43;;;3.57;;
72601;SDS011;60644;55.858;37.390;2022-11-25T08:23:37;9.57;;;2.80;;
72601;SDS011;60644;55.858;37.390;2022-11-25T08:26:11;10.48;;;3.05;;
72601;SDS011;60644;55.858;37.390;2022-11-25T08:28:39;9.70;;;2.88;;
72601;SDS011;60644;55.858;37.390;2022-11-25T08:31:10;7.03;;;2.30;;
72601;SDS011;60644;55.858;37.390;2022-11-25T08:33:37;10.57;;;3.33;;
72601;SDS011;60644;55.858;37.390;2022-11-25T08:36:04;8.30;;;2.03;;
72601;SDS011;60644;55.858;37.390;2022-11-25T08:38:31;9.38;;;2.55;;
72601;SDS011;60644;55.858;37.390;2022-11-25T08:40:58;9.20;;;2.55;;
72601;SDS011;60644;55.858;37.390;2022-11-25T08:43:24;12.02;;;3.58;;
72601;SDS011;60644;55.858;37.390;2022-11-25T08:45:50;6.00;;;1.67;;
72601;SDS011;60644;55.858;37.390;2022-11-25T08:48:17;8.65;;;2.95;;
72601;SDS011;60644;55.858;37.390;2022-11-25T08:50:45;10.07;;;3.35;;
72601;SDS011;60644;55.858;37.390;2022-11-25T08:53:13;9.27;;;2.60;;
72601;SDS011;60644;55.858;37.390;2022-11-25T08:55:39;10.27;;;3.70;;
72601;SDS011;60644;55.858;37.390;2022-11-25T08:58:05;8.95;;;3.10;;
72601;SDS011;60644;55.858;37.390;2022-11-25T09:00:36;7.53;;;2.28;;
72601;SDS011;60644;55.858;37.390;2022-11-25T09:03:02;12.27;;;3.28;;
72601;SDS011;60644;55.858;37.390;2022-11-25T09:05:28;9.07;;;2.92;;
72601;SDS011;60644;55.858;37.390;2022-11-25T09:08:03;9.77;;;3.27;;
72601;SDS011;60644;55.858;37.390;2022-11-25T09:10:30;11.88;;;3.30;;
72601;SDS011;60644;55.858;37.390;2022-11-25T09:12:57;10.05;;;3.17;;
72601;SDS011;60644;55.858;37.390;2022-11-25T09:15:24;9.75;;;2.63;;
72601;SDS011;60644;55.858;37.390;2022-11-25T09:17:57;9.20;;;2.20;;
72601;SDS011;60644;55.858;37.390;2022-11-25T09:20:24;9.00;;;2.23;;
72601;SDS011;60644;55.858;37.390;2022-11-25T09:22:51;9.70;;;3.13;;
72601;SDS011;60644;55.858;37.390;2022-11-25T09:25:17;7.03;;;2.42;;
72601;SDS011;60644;55.858;37.390;2022-11-25T09:27:42;7.57;;;2.33;;
72601;SDS011;60644;55.858;37.390;2022-11-25T09:30:08;7.60;;;2.83;;
72601;SDS011;60644;55.858;37.390;2022-11-25T09:32:34;13.93;;;3.95;;
72601;SDS011;60644;55.858;37.390;2022-11-25T09:35:00;10.67;;;3.57;;
72601;SDS011;60644;55.858;37.390;2022-11-25T09:37:26;12.05;;;3.30;;
72601;SDS011;60644;55.858;37.390;2022-11-25T09:39:52;9.32;;;2.83;;
72601;SDS011;60644;55.858;37.390;2022-11-25T09:45:22;8.73;;;2.83;;
72601;SDS011;60644;55.858;37.390;2022-11-25T09:53:51;12.20;;;3.53;;
72601;SDS011;60644;55.858;37.390;2022-11-25T10:01:43;9.32;;;2.95;;
72601;SDS011;60644;55.858;37.390;2022-11-25T10:04:12;8.77;;;2.95;;
72601;SDS011;60644;55.858;37.390;2022-11-25T10:06:50;8.05;;;2.65;;
72601;SDS011;60644;55.858;37.390;2022-11-25T10:09:27;12.90;;;4.13;;
72601;SDS011;60644;55.858;37.390;2022-11-25T10:11:55;8.03;;;2.50;;
72601;SDS011;60644;55.858;37.390;2022-11-25T10:14:33;9.82;;;3.28;;
72601;SDS011;60644;55.858;37.390;2022-11-25T10:19:39;11.48;;;3.83;;
72601;SDS011;60644;55.858;37.390;2022-11-25T10:22:22;8.85;;;3.05;;
72601;SDS011;60644;55.858;37.390;2022-11-25T10:24:49;11.80;;;3.77;;
72601;SDS011;60644;55.858;37.390;2022-11-25T10:27:18;6.80;;;2.38;;
72601;SDS011;60644;55.858;37.390;2022-11-25T10:30:10;8.48;;;2.70;;
72601;SDS011;60644;55.858;37.390;2022-11-25T10:32:45;8.90;;;2.60;;
72601;SDS011;60644;55.858;37.390;2022-11-25T10:35:19;7.72;;;2.67;;
72601;SDS011;60644;55.858;37.390;2022-11-25T10:37:53;6.80;;;2.27;;
72601;SDS011;60644;55.858;37.390;2022-11-25T10:40:22;10.68;;;3.90;;
72601;SDS011;60644;55.858;37.390;2022-11-25T10:42:48;6.97;;;2.55;;
72601;SDS011;60644;55.858;37.390;2022-11-25T10:45:14;9.27;;;2.70;;
72601;SDS011;60644;55.858;37.390;2022-11-25T10:50:37;10.32;;;3.60;;
72601;SDS011;60644;55.858;37.390;2022-11-25T10:53:24;7.78;;;2.92;;
72601;SDS011;60644;55.858;37.390;2022-11-25T10:55:58;9.52;;;3.78;;
72601;SDS011;60644;55.858;37.390;2022-11-25T10:58:25;10.83;;;3.70;;
72601;SDS011;60644;55.858;37.390;2022-11-25T11:01:04;7.45;;;2.42;;
72601;SDS011;60644;55.858;37.390;2022-11-25T11:03:51;12.18;;;3.50;;
72601;SDS011;60644;55.858;37.390;2022-11-25T11:06:29;5.43;;;1.65;;
72601;SDS011;60644;55.858;37.390;2022-11-25T11:08:56;9.23;;;2.90;;
72601;SDS011;60644;55.858;37.390;2022-11-25T11:11:23;10.00;;;3.27;;
72601;SDS011;60644;55.858;37.390;2022-11-25T11:13:56;9.77;;;3.58;;
72601;SDS011;60644;55.858;37.390;2022-11-25T11:16:35;18.77;;;7.65;;
72601;SDS011;60644;55.858;37.390;2022-11-25T11:19:04;19.67;;;7.88;;
72601;SDS011;60644;55.858;37.390;2022-11-25T11:21:32;8.98;;;3.17;;
72601;SDS011;60644;55.858;37.390;2022-11-25T11:24:00;9.77;;;4.27;;
72601;SDS011;60644;55.858;37.390;2022-11-25T11:26:31;9.50;;;3.40;;
72601;SDS011;60644;55.858;37.390;2022-11-25T11:29:11;7.60;;;3.05;;
72601;SDS011;60644;55.858;37.390;2022-11-25T11:31:43;8.13;;;2.38;;
72601;SDS011;60644;55.858;37.390;2022-11-25T11:34:21;8.65;;;2.83;;
72601;SDS011;60644;55.858;37.390;2022-11-25T11:51:39;9.90;;;3.00;;
72601;SDS011;60644;55.858;37.390;2022-11-25T11:54:24;9.70;;;2.88;;
72601;SDS011;60644;55.858;37.390;2022-11-25T11:57:01;8.35;;;2.88;;
72601;SDS011;60644;55.858;37.390;2022-11-25T11:59:37;7.80;;;2.70;;
72601;SDS011;60644;55.858;37.390;2022-11-25T12:05:13;7.43;;;2.47;;
72601;SDS011;60644;55.858;37.390;2022-11-25T12:07:46;9.32;;;2.53;;
72601;SDS011;60644;55.858;37.390;2022-11-25T12:15:44;8.35;;;2.92;;
72601;SDS011;60644;55.858;37.390;2022-11-25T12:21:05;8.93;;;2.40;;
72601;SDS011;60644;55.858;37.390;2022-11-25T12:23:55;8.02;;;2.38;;
72601;SDS011;60644;55.858;37.390;2022-11-25T12:29:40;7.80;;;2.70;;
72601;SDS011;60644;55.858;37.390;2022-11-25T12:35:02;7.85;;;2.22;;
72601;SDS011;60644;55.858;37.390;2022-11-25T12:37:53;6.35;;;2.15;;
72601;SDS011;60644;55.858;37.390;2022-11-25T12:43:24;7.07;;;1.92;;
72601;SDS011;60644;55.858;37.390;2022-11-25T12:46:02;6.33;;;2.10;;
72601;SDS011;60644;55.858;37.390;2022-11-25T12:48:48;8.18;;;2.15;;
72601;SDS011;60644;55.858;37.390;2022-11-25T12:51:36;8.52;;;2.13;;
72601;SDS011;60644;55.858;37.390;2022-11-25T12:54:18;7.53;;;2.50;;
72601;SDS011;60644;55.858;37.390;2022-11-25T13:13:23;6.53;;;2.15;;
72601;SDS011;60644;55.858;37.390;2022-11-25T13:15:54;6.00;;;1.73;;
72601;SDS011;60644;55.858;37.390;2022-11-25T13:18:24;9.60;;;2.30;;
72601;SDS011;60644;55.858;37.390;2022-11-25T13:20:53;7.70;;;2.05;;
72601;SDS011;60644;55.858;37.390;2022-11-25T13:23:24;7.77;;;2.47;;
72601;SDS011;60644;55.858;37.390;2022-11-25T13:25:52;5.85;;;1.95;;
72601;SDS011;60644;55.858;37.390;2022-11-25T13:28:39;6.93;;;2.20;;
72601;SDS011;60644;55.858;37.390;2022-11-25T13:31:21;7.00;;;1.90;;
72601;SDS011;60644;55.858;37.390;2022-11-25T13:36:23;6.65;;;1.95;;
72601;SDS011;60644;55.858;37.390;2022-11-25T13:43:53;6.43;;;1.70;;
72601;SDS011;60644;55.858;37.390;2022-11-25T13:51:52;6.72;;;1.65;;
72601;SDS011;60644;55.858;37.390;2022-11-25T13:54:20;6.20;;;2.20;;
72601;SDS011;60644;55.858;37.390;2022-11-25T13:57:39;8.35;;;2.00;;
72601;SDS011;60644;55.858;37.390;2022-11-25T14:00:06;6.82;;;2.30;;
72601;SDS011;60644;55.858;37.390;2022-11-25T14:02:53;7.60;;;2.60;;
72601;SDS011;60644;55.858;37.390;2022-11-25T14:05:38;7.37;;;2.47;;
72601;SDS011;60644;55.858;37.390;2022-11-25T14:08:20;7.55;;;2.95;;
72601;SDS011;60644;55.858;37.390;2022-11-25T14:16:12;7.85;;;2.22;;
72601;SDS011;60644;55.858;37.390;2022-11-25T14:24:10;6.30;;;2.33;;
72601;SDS011;60644;55.858;37.390;2022-11-25T14:26:49;6.32;;;1.90;;
72601;SDS011;60644;55.858;37.390;2022-11-25T14:29:19;6.13;;;2.08;;
72601;SDS011;60644;55.858;37.390;2022-11-25T14:31:59;7.40;;;2.20;;
72601;SDS011;60644;55.858;37.390;2022-11-25T14:34:35;9.10;;;2.60;;
72601;SDS011;60644;55.858;37.390;2022-11-25T14:37:09;6.85;;;2.00;;
72601;SDS011;60644;55.858;37.390;2022-11-25T14:39:43;6.63;;;1.90;;
72601;SDS011;60644;55.858;37.390;2022-11-25T14:42:23;7.20;;;2.63;;
72601;SDS011;60644;55.858;37.390;2022-11-25T14:44:52;7.13;;;2.57;;
72601;SDS011;60644;55.858;37.390;2022-11-25T14:47:21;7.07;;;2.13;;
72601;SDS011;60644;55.858;37.390;2022-11-25T14:49:49;7.55;;;2.20;;
72601;SDS011;60644;55.858;37.390;2022-11-25T14:54:50;6.53;;;2.10;;
72601;SDS011;60644;55.858;37.390;2022-11-25T14:57:19;7.60;;;2.10;;
72601;SDS011;60644;55.858;37.390;2022-11-25T14:59:48;7.97;;;2.35;;
72601;SDS011;60644;55.858;37.390;2022-11-25T15:02:27;8.98;;;2.55;;
72601;SDS011;60644;55.858;37.390;2022-11-25T15:05:16;6.57;;;2.00;;
72601;SDS011;60644;55.858;37.390;2022-11-25T15:07:53;7.93;;;2.30;;
72601;SDS011;60644;55.858;37.390;2022-11-25T15:16:29;6.03;;;2.00;;
72601;SDS011;60644;55.858;37.390;2022-11-25T15:19:03;8.60;;;2.60;;
72601;SDS011;60644;55.858;37.390;2022-11-25T15:21:38;8.23;;;2.50;;
72601;SDS011;60644;55.858;37.390;2022-11-25T15:24:05;5.93;;;1.73;;
72601;SDS011;60644;55.858;37.390;2022-11-25T15:26:55;8.70;;;2.97;;
72601;SDS011;60644;55.858;37.390;2022-11-25T15:29:23;9.63;;;3.17;;
72601;SDS011;60644;55.858;37.390;2022-11-25T15:31:50;7.22;;;2.38;;
72601;SDS011;60644;55.858;37.390;2022-11-25T15:34:18;6.38;;;1.77;;
72601;SDS011;60644;55.858;37.390;2022-11-25T15:36:45;7.73;;;2.30;;
72601;SDS011;60644;55.858;37.390;2022-11-25T15:39:12;7.60;;;2.45;;
72601;SDS011;60644;55.858;37.390;2022-11-25T15:41:38;7.38;;;2.50;;
72601;SDS011;60644;55.858;37.390;2022-11-25T15:44:06;8.50;;;2.45;;
72601;SDS011;60644;55.858;37.390;2022-11-25T15:46:40;9.20;;;2.97;;
72601;SDS011;60644;55.858;37.390;2022-11-25T15:49:22;7.50;;;2.57;;
72601;SDS011;60644;55.858;37.390;2022-11-25T15:51:50;11.60;;;3.58;;
72601;SDS011;60644;55.858;37.390;2022-11-25T15:56:53;7.90;;;2.75;;
72601;SDS011;60644;55.858;37.390;2022-11-25T16:15:51;7.97;;;2.57;;
72601;SDS011;60644;55.858;37.390;2022-11-25T16:18:19;6.47;;;1.83;;
72601;SDS011;60644;55.858;37.390;2022-11-25T16:21:07;6.63;;;2.42;;
72601;SDS011;60644;55.858;37.390;2022-11-25T16:23:36;8.43;;;2.53;;
72601;SDS011;60644;55.858;37.390;2022-11-25T16:26:12;8.35;;;2.75;;
72601;SDS011;60644;55.858;37.390;2022-11-25T16:28:54;7.63;;;2.30;;
72601;SDS011;60644;55.858;37.390;2022-11-25T16:31:21;6.88;;;1.95;;
72601;SDS011;60644;55.858;37.390;2022-11-25T16:33:49;5.50;;;1.90;;
72601;SDS011;60644;55.858;37.390;2022-11-25T16:36:18;7.95;;;2.67;;
72601;SDS011;60644;55.858;37.390;2022-11-25T16:38:43;8.00;;;2.83;;
72601;SDS011;60644;55.858;37.390;2022-11-25T16:41:14;5.43;;;1.80;;
72601;SDS011;60644;55.858;37.390;2022-11-25T16:43:44;7.30;;;2.20;;
72601;SDS011;60644;55.858;37.390;2022-11-25T16:46:12;6.25;;;2.10;;
72601;SDS011;60644;55.858;37.390;2022-11-25T16:48:42;10.25;;;2.10;;
72601;SDS011;60644;55.858;37.390;2022-11-25T16:51:13;8.68;;;2.80;;
72601;SDS011;60644;55.858;37.390;2022-11-25T16:53:40;8.15;;;2.67;;
72601;SDS011;60644;55.858;37.390;2022-11-25T16:56:11;8.27;;;2.65;;
72601;SDS011;60644;55.858;37.390;2022-11-25T16:58:40;8.53;;;1.83;;
72601;SDS011;60644;55.858;37.390;2022-11-25T17:01:12;8.10;;;2.60;;
72601;SDS011;60644;55.858;37.390;2022-11-25T17:03:40;7.55;;;2.65;;